Alden, Wisconsin
Current Conditions -  °F | °C
As of 11:35 PM on Tuesday 25 Nov 2014 (Local Time) from KRNH Reporting Station
Overcast Overcast  
Wind Chill: 24°   Ceiling: 6500
Heat Index: 24°   Visibility: 10mi
Dew Point: 18°   Wind: 3mph
Humidity: 77%   Direction: 120°ESE
Pressure: 30.06"   Gusts: NA
Location:  45.1804°N, 92.551°W
Report Text: KRNH 260535Z AUTO 12003KT 10SM OVC065 M05/M08 A3006 RMK AO2 T10461080
Loading
Personal Weather Stations






























Interactive Weather Map New forecast layout! Learn more

10-Day Weather Forecast

Advertisements
Track Severe Weather on mobile